Time;durP1;ratioP1;P1;durP2;ratioP2;P2;SDS_P1;SDS_P2;PMS_P1;PMS_P2;Temp;Humidity;BMP_temperature;BMP_pressure;BME280_temperature;BME280_humidity;BME280_pressure;Samples;Min_cycle;Max_cycle;Signal;HPM_P1;HPM_P2
2022/10/12 00:01:21;;;;;;;2.10;0.90;;;7.30;99.90;;;;;;4994149;28;20030;-74
2022/10/12 00:03:47;;;;;;;2.30;1.08;;;7.20;99.90;;;;;;4989707;28;20081;-74
2022/10/12 00:06:16;;;;;;;1.55;0.98;;;7.20;99.90;;;;;;4992908;28;20069;-75
2022/10/12 00:08:43;;;;;;;2.80;1.00;;;7.20;99.90;;;;;;5007705;28;20046;-75
2022/10/12 00:11:15;;;;;;;1.67;1.10;;;7.20;99.90;;;;;;4978163;28;20408;-75
2022/10/12 00:13:41;;;;;;;2.40;1.08;;;7.20;99.90;;;;;;4977209;28;20042;-75
2022/10/12 00:16:08;;;;;;;3.22;1.20;;;7.20;99.90;;;;;;4992953;28;20491;-74
2022/10/12 00:18:34;;;;;;;3.55;1.50;;;7.20;99.90;;;;;;4977861;28;20109;-75
2022/10/12 00:21:09;;;;;;;4.60;1.45;;;7.30;99.90;;;;;;4988927;28;20038;-75
2022/10/12 00:23:36;;;;;;;2.72;1.55;;;7.30;99.90;;;;;;4966630;28;20118;-74
2022/10/12 00:26:05;;;;;;;4.30;1.20;;;7.40;99.90;;;;;;4993132;28;20074;-75
2022/10/12 00:28:31;;;;;;;2.80;1.10;;;7.40;99.90;;;;;;4992561;28;20096;-75
2022/10/12 00:30:57;;;;;;;1.80;1.05;;;7.30;99.90;;;;;;4977289;28;20080;-75
2022/10/12 00:33:23;;;;;;;2.53;1.20;;;7.30;99.90;;;;;;5009800;28;20038;-75
2022/10/12 00:35:49;;;;;;;4.40;1.38;;;7.30;99.90;;;;;;4976586;28;20038;-75
2022/10/12 00:38:14;;;;;;;4.75;1.65;;;7.20;99.90;;;;;;4975352;28;20053;-75
2022/10/12 00:40:40;;;;;;;4.97;1.60;;;7.20;99.90;;;;;;4993631;28;20108;-75
2022/10/12 00:43:25;;;;;;;5.72;1.85;;;7.20;99.90;;;;;;4992075;28;20549;-75
2022/10/12 00:45:50;;;;;;;3.08;1.00;;;7.20;99.90;;;;;;4992533;28;20521;-75
2022/10/12 00:48:16;;;;;;;3.53;1.10;;;7.20;99.90;;;;;;5008609;28;20042;-74
2022/10/12 00:50:42;;;;;;;3.47;1.20;;;7.20;99.90;;;;;;4976933;28;20038;-75
2022/10/12 00:53:14;;;;;;;3.15;1.33;;;7.20;99.90;;;;;;5009402;28;20408;-74
2022/10/12 00:55:46;;;;;;;2.30;0.98;;;7.20;99.90;;;;;;4976390;28;20042;-74
2022/10/12 00:58:12;;;;;;;2.80;1.10;;;7.20;99.90;;;;;;4992214;28;20049;-74
2022/10/12 01:00:39;;;;;;;2.88;1.15;;;7.20;99.90;;;;;;4993041;28;20121;-75
2022/10/12 01:03:08;;;;;;;4.70;1.65;;;7.20;99.90;;;;;;4993058;28;20092;-75
2022/10/12 01:05:35;;;;;;;4.65;1.48;;;7.10;99.90;;;;;;5008358;28;20042;-75
2022/10/12 01:08:01;;;;;;;5.00;2.20;;;7.10;99.90;;;;;;5008403;28;20038;-74
2022/10/12 01:10:27;;;;;;;4.35;1.60;;;7.10;99.90;;;;;;5025707;28;20047;-74
2022/10/12 01:12:53;;;;;;;3.38;1.10;;;7.00;99.90;;;;;;5009081;28;20046;-74
2022/10/12 01:15:19;;;;;;;1.48;0.88;;;7.10;99.90;;;;;;4976638;28;20043;-74
2022/10/12 01:18:00;;;;;;;1.95;0.90;;;7.10;99.90;;;;;;5008326;28;20053;-74
2022/10/12 01:20:53;;;;;;;2.80;1.20;;;7.10;99.90;;;;;;4992781;28;20065;-74
2022/10/12 01:23:25;;;;;;;6.05;1.90;;;7.10;99.90;;;;;;5009242;28;20388;-74
2022/10/12 01:26:26;;;;;;;6.03;1.85;;;7.10;99.90;;;;;;4991665;28;20042;-74
2022/10/12 01:29:24;;;;;;;4.32;1.63;;;7.10;99.90;;;;;;4976458;28;20039;-74
2022/10/12 01:32:07;;;;;;;4.65;1.65;;;7.00;99.90;;;;;;5008990;28;20046;-74
2022/10/12 01:34:43;;;;;;;4.55;1.48;;;7.00;99.90;;;;;;5008878;28;20054;-74
2022/10/12 01:37:33;;;;;;;4.13;1.60;;;7.00;99.90;;;;;;4974835;28;20070;-74
2022/10/12 01:40:06;;;;;;;7.88;2.63;;;7.00;99.90;;;;;;4973210;28;20101;-74
2022/10/12 01:42:37;;;;;;;5.82;1.92;;;7.00;99.90;;;;;;4992719;28;20044;-74
2022/10/12 01:45:07;;;;;;;5.82;1.50;;;7.00;99.90;;;;;;4975388;28;20038;-74
2022/10/12 01:47:34;;;;;;;3.03;1.20;;;6.90;99.90;;;;;;4989844;28;20492;-74
2022/10/12 01:50:03;;;;;;;2.78;1.00;;;6.90;99.90;;;;;;4990965;28;20038;-74
2022/10/12 01:53:13;;;;;;;3.25;1.30;;;7.00;99.90;;;;;;5025062;28;20420;-74
2022/10/12 01:55:51;;;;;;;1.98;0.90;;;7.00;99.90;;;;;;4978573;28;20053;-74
2022/10/12 01:58:56;;;;;;;5.10;1.30;;;7.00;99.90;;;;;;4992574;28;20046;-74
2022/10/12 02:02:05;;;;;;;4.75;1.40;;;7.00;99.90;;;;;;4983136;28;20382;-74
2022/10/12 02:04:33;;;;;;;4.65;1.77;;;7.00;99.90;;;;;;4927628;29;20035;-74
2022/10/12 02:07:03;;;;;;;3.78;1.50;;;6.90;99.90;;;;;;4982374;28;20054;-74
2022/10/12 02:09:33;;;;;;;4.43;1.40;;;6.90;99.90;;;;;;4977147;28;20046;-74
2022/10/12 02:12:16;;;;;;;3.72;1.40;;;6.90;99.90;;;;;;4995538;28;20468;-74
2022/10/12 02:14:47;;;;;;;3.85;1.20;;;6.90;99.90;;;;;;4992365;28;20050;-74
2022/10/12 02:17:15;;;;;;;4.47;1.47;;;6.90;99.90;;;;;;4995277;28;20042;-74
2022/10/12 02:19:46;;;;;;;3.75;1.52;;;6.80;99.90;;;;;;4993569;28;20493;-74
2022/10/12 02:22:13;;;;;;;10.07;1.40;;;6.80;99.90;;;;;;4990889;28;20034;-74
2022/10/12 02:24:42;;;;;;;3.22;1.35;;;6.70;99.90;;;;;;5012758;28;20518;-74
2022/10/12 02:27:09;;;;;;;2.90;1.08;;;6.70;99.90;;;;;;5002824;28;20058;-74
2022/10/12 02:29:38;;;;;;;3.17;1.50;;;6.80;99.90;;;;;;4976154;28;20058;-74
2022/10/12 02:32:54;;;;;;;3.08;1.38;;;6.80;99.90;;;;;;4992027;28;20046;-74
2022/10/12 02:35:51;;;;;;;8.18;2.10;;;6.70;99.90;;;;;;4988508;28;20078;-74
2022/10/12 02:38:30;;;;;;;3.65;1.33;;;6.80;99.90;;;;;;4994838;28;20042;-74
2022/10/12 02:41:06;;;;;;;4.43;1.30;;;6.70;99.90;;;;;;4994446;28;20036;-74
2022/10/12 02:43:43;;;;;;;4.10;1.15;;;6.70;99.90;;;;;;4977927;28;20050;-74
2022/10/12 02:46:10;;;;;;;4.13;0.93;;;6.80;99.90;;;;;;4979343;28;20081;-74
2022/10/12 02:48:38;;;;;;;5.47;1.30;;;6.90;99.90;;;;;;4994652;28;20043;-74
2022/10/12 02:51:06;;;;;;;3.15;1.20;;;6.90;99.90;;;;;;4979180;28;20042;-74
2022/10/12 02:53:31;;;;;;;3.78;1.17;;;6.90;99.90;;;;;;4994518;28;20074;-74
2022/10/12 02:56:06;;;;;;;3.00;1.17;;;6.90;99.90;;;;;;4979645;28;20073;-74
2022/10/12 02:58:32;;;;;;;3.28;1.38;;;6.90;99.90;;;;;;4977821;28;20077;-74
2022/10/12 03:00:57;;;;;;;2.03;1.10;;;6.90;99.90;;;;;;5023166;28;20043;-74
2022/10/12 03:03:23;;;;;;;3.08;1.20;;;6.90;99.90;;;;;;5007079;28;20039;-74
2022/10/12 03:05:50;;;;;;;4.25;1.10;;;6.90;99.90;;;;;;5009693;28;20118;-74
2022/10/12 03:08:15;;;;;;;5.63;1.33;;;6.90;99.90;;;;;;4992437;28;20456;-74
2022/10/12 03:10:41;;;;;;;2.63;1.45;;;6.80;99.90;;;;;;4977993;28;20133;-74
2022/10/12 03:13:06;;;;;;;4.72;1.50;;;6.80;99.90;;;;;;4993103;28;20154;-74
2022/10/12 03:15:32;;;;;;;5.68;1.40;;;6.80;99.90;;;;;;4977632;28;20049;-74
2022/10/12 03:17:58;;;;;;;4.57;2.13;;;6.80;99.90;;;;;;5025676;28;20038;-74
2022/10/12 03:20:23;;;;;;;3.75;1.55;;;6.70;99.90;;;;;;4993772;28;20627;-74
2022/10/12 03:22:49;;;;;;;5.05;1.40;;;6.70;99.90;;;;;;4984101;28;20105;-75
2022/10/12 03:25:15;;;;;;;4.75;1.90;;;6.70;99.90;;;;;;4993633;28;20121;-74
2022/10/12 03:27:41;;;;;;;3.25;1.35;;;6.70;99.90;;;;;;4992981;28;20046;-74
2022/10/12 03:30:07;;;;;;;2.47;1.20;;;6.60;99.90;;;;;;4993643;28;20045;-74
2022/10/12 03:32:32;;;;;;;7.95;5.03;;;6.70;99.90;;;;;;4993097;28;20432;-74
2022/10/12 03:34:58;;;;;;;3.13;1.38;;;6.70;99.90;;;;;;4974051;28;20051;-74
2022/10/12 03:37:23;;;;;;;2.58;1.33;;;6.70;99.90;;;;;;5007817;28;20065;-74
2022/10/12 03:39:49;;;;;;;2.35;1.20;;;6.70;99.90;;;;;;5009828;28;20089;-74
2022/10/12 03:42:15;;;;;;;4.97;1.40;;;6.70;99.90;;;;;;5023171;28;20038;-74
2022/10/12 03:44:40;;;;;;;6.78;2.60;;;6.70;99.90;;;;;;4992631;28;20062;-74
2022/10/12 03:47:06;;;;;;;2.90;1.33;;;6.70;99.90;;;;;;4993657;28;20070;-74
2022/10/12 03:49:31;;;;;;;3.70;1.70;;;6.60;99.90;;;;;;4992828;28;20034;-74
2022/10/12 03:51:57;;;;;;;6.00;1.67;;;6.60;99.90;;;;;;4993347;28;20524;-74
2022/10/12 03:54:23;;;;;;;3.53;1.70;;;6.60;99.90;;;;;;4991244;28;20078;-75
2022/10/12 03:56:48;;;;;;;2.75;1.48;;;6.60;99.90;;;;;;4972189;28;1045264;-74
2022/10/12 03:59:14;;;;;;;4.03;1.60;;;6.60;99.90;;;;;;4977974;28;20142;-74
2022/10/12 04:01:39;;;;;;;5.43;1.80;;;6.60;99.90;;;;;;4993126;28;20042;-74
2022/10/12 04:04:05;;;;;;;5.15;2.08;;;6.60;99.90;;;;;;4993236;28;20420;-74
2022/10/12 04:06:30;;;;;;;5.72;1.63;;;6.60;99.90;;;;;;4982380;28;20121;-74
2022/10/12 04:08:56;;;;;;;4.60;1.60;;;6.60;99.90;;;;;;5025461;28;20037;-74
2022/10/12 04:11:21;;;;;;;4.95;2.17;;;6.70;99.90;;;;;;5025745;28;20090;-74
2022/10/12 04:13:47;;;;;;;3.42;1.63;;;6.60;99.90;;;;;;5010348;28;20085;-74
2022/10/12 04:16:13;;;;;;;5.80;2.00;;;6.60;99.90;;;;;;4992640;28;20093;-74
2022/10/12 04:18:39;;;;;;;4.45;2.33;;;6.60;99.90;;;;;;5009563;28;20073;-74
2022/10/12 04:21:09;;;;;;;5.50;2.10;;;6.60;99.90;;;;;;5008270;28;20467;-74
2022/10/12 04:23:34;;;;;;;4.07;1.63;;;6.60;99.90;;;;;;5025429;28;20046;-74
2022/10/12 04:26:00;;;;;;;4.13;1.80;;;6.60;99.90;;;;;;5010215;28;20034;-74
2022/10/12 04:28:25;;;;;;;4.55;1.98;;;6.60;99.90;;;;;;5025567;28;20546;-74
2022/10/12 04:30:51;;;;;;;6.80;2.10;;;6.60;99.90;;;;;;4977504;28;20038;-74
2022/10/12 04:33:17;;;;;;;5.03;1.63;;;6.60;99.90;;;;;;4993048;28;20080;-74
2022/10/12 04:35:42;;;;;;;7.20;2.50;;;6.60;99.90;;;;;;4992292;28;20093;-74
2022/10/12 04:38:08;;;;;;;5.07;1.92;;;6.60;99.90;;;;;;5009650;28;20061;-74
2022/10/12 04:40:33;;;;;;;5.20;2.28;;;6.60;99.90;;;;;;5007950;28;20247;-74
2022/10/12 04:42:59;;;;;;;7.03;2.20;;;6.60;99.90;;;;;;4993333;28;20452;-74
2022/10/12 04:45:24;;;;;;;6.75;2.28;;;6.70;99.90;;;;;;4992515;28;20073;-74
2022/10/12 04:47:50;;;;;;;5.18;2.22;;;6.70;99.90;;;;;;4993253;28;20045;-74
2022/10/12 04:50:16;;;;;;;6.82;2.35;;;6.70;99.90;;;;;;4992635;28;20042;-74
2022/10/12 04:52:41;;;;;;;7.07;3.38;;;6.70;99.90;;;;;;4993167;28;20077;-74
2022/10/12 04:55:07;;;;;;;6.65;2.50;;;6.80;99.90;;;;;;4992139;28;20405;-74
2022/10/12 04:57:33;;;;;;;8.55;2.55;;;6.80;99.90;;;;;;4975268;28;20058;-74
2022/10/12 04:59:58;;;;;;;6.13;2.20;;;6.80;99.90;;;;;;5025878;28;20044;-74
2022/10/12 05:02:24;;;;;;;4.88;1.70;;;6.80;99.90;;;;;;5022605;28;20512;-74
2022/10/12 05:04:51;;;;;;;2.42;1.17;;;6.90;99.90;;;;;;4992858;28;20034;-74
2022/10/12 05:07:16;;;;;;;2.03;1.20;;;6.90;99.90;;;;;;4991009;28;20109;-74
2022/10/12 05:09:42;;;;;;;1.80;1.20;;;6.80;99.90;;;;;;4991963;28;20499;-74
2022/10/12 05:12:08;;;;;;;2.50;1.60;;;6.80;99.90;;;;;;4990913;28;20122;-74
2022/10/12 05:14:33;;;;;;;2.65;1.20;;;6.80;99.90;;;;;;4992070;28;20595;-74
2022/10/12 05:16:59;;;;;;;4.18;1.60;;;6.70;99.90;;;;;;4989569;28;20035;-74
2022/10/12 05:19:24;;;;;;;3.88;1.50;;;6.60;99.90;;;;;;4992072;28;20492;-74
2022/10/12 05:21:52;;;;;;;3.53;1.70;;;6.60;99.90;;;;;;4990831;28;20404;-74
2022/10/12 05:24:17;;;;;;;7.82;2.00;;;6.50;99.90;;;;;;4992719;28;20093;-74
2022/10/12 05:26:43;;;;;;;4.00;1.70;;;6.50;99.90;;;;;;4991128;28;20046;-74
2022/10/12 05:29:08;;;;;;;6.95;2.40;;;6.50;99.90;;;;;;4975657;28;20042;-74
2022/10/12 05:31:34;;;;;;;7.80;2.40;;;6.50;99.90;;;;;;4981535;28;20137;-74
2022/10/12 05:33:59;;;;;;;6.63;3.00;;;6.50;99.90;;;;;;5025297;28;20046;-74
2022/10/12 05:36:25;;;;;;;7.75;3.00;;;6.50;99.90;;;;;;4990976;28;20123;-74
2022/10/12 05:38:51;;;;;;;6.97;3.10;;;6.60;99.90;;;;;;4992591;28;20038;-74
2022/10/12 05:41:16;;;;;;;8.38;3.38;;;6.50;99.90;;;;;;4991923;28;20043;-74
2022/10/12 05:43:42;;;;;;;8.77;3.60;;;6.60;99.90;;;;;;4992497;28;20493;-74
2022/10/12 05:46:07;;;;;;;9.70;4.13;;;6.60;99.90;;;;;;4988999;28;20185;-74
2022/10/12 05:48:33;;;;;;;8.73;3.53;;;6.70;99.90;;;;;;4991706;28;20121;-74
2022/10/12 05:50:59;;;;;;;7.80;3.13;;;6.70;99.90;;;;;;4999195;28;20037;-74
2022/10/12 05:53:24;;;;;;;9.75;3.78;;;6.70;99.90;;;;;;5004792;28;20509;-74
2022/10/12 05:55:57;;;;;;;10.52;3.72;;;6.70;99.90;;;;;;4975426;28;20034;-74
2022/10/12 05:58:23;;;;;;;9.20;3.65;;;6.80;99.90;;;;;;4992136;28;20098;-74
2022/10/12 06:00:49;;;;;;;9.75;4.32;;;6.90;99.90;;;;;;5007959;28;20176;-74
2022/10/12 06:03:15;;;;;;;7.85;4.00;;;6.90;99.90;;;;;;5008669;28;20092;-74
2022/10/12 06:05:41;;;;;;;11.02;4.43;;;6.90;99.90;;;;;;4991455;28;20121;-74
2022/10/12 06:08:07;;;;;;;8.63;4.10;;;6.90;99.90;;;;;;5007809;28;20046;-74
2022/10/12 06:10:35;;;;;;;12.23;4.47;;;6.90;99.90;;;;;;4976241;28;20042;-74
2022/10/12 06:13:01;;;;;;;9.38;4.32;;;6.90;99.90;;;;;;4992262;28;20519;-74
2022/10/12 06:15:26;;;;;;;9.32;4.47;;;6.90;99.90;;;;;;4991488;28;20044;-74
2022/10/12 06:17:52;;;;;;;7.70;4.03;;;6.90;99.90;;;;;;4991198;28;20047;-75
2022/10/12 06:20:18;;;;;;;8.27;3.85;;;6.90;99.90;;;;;;4990343;28;20479;-74
2022/10/12 06:22:43;;;;;;;6.35;3.42;;;6.90;99.90;;;;;;4992139;28;20108;-74
2022/10/12 06:25:09;;;;;;;9.73;4.13;;;6.90;99.90;;;;;;4991396;28;20473;-74
2022/10/12 06:27:35;;;;;;;9.75;4.03;;;6.90;99.90;;;;;;4991980;28;20129;-74
2022/10/12 06:30:00;;;;;;;9.27;4.10;;;6.90;99.90;;;;;;4974959;28;20039;-74
2022/10/12 06:32:26;;;;;;;10.88;3.97;;;6.80;99.90;;;;;;5008315;28;20049;-74
2022/10/12 06:34:51;;;;;;;8.50;4.35;;;6.80;99.90;;;;;;4974821;28;20046;-74
2022/10/12 06:37:17;;;;;;;8.50;4.00;;;6.70;99.90;;;;;;5008175;28;20548;-74
2022/10/12 06:39:43;;;;;;;11.30;4.55;;;6.70;99.90;;;;;;5007253;28;20455;-74
2022/10/12 06:42:10;;;;;;;10.85;4.30;;;6.70;99.90;;;;;;5011353;28;20041;-74
2022/10/12 06:44:35;;;;;;;9.40;4.32;;;6.70;99.90;;;;;;5012143;28;20369;-74
2022/10/12 06:47:01;;;;;;;8.85;4.55;;;6.70;99.90;;;;;;5010530;28;20050;-74
2022/10/12 06:49:26;;;;;;;9.52;4.28;;;6.70;99.90;;;;;;5026321;28;20050;-74
2022/10/12 06:51:52;;;;;;;8.82;4.28;;;6.70;99.90;;;;;;5011879;28;20046;-71
2022/10/12 06:54:18;;;;;;;12.52;5.28;;;6.80;99.90;;;;;;4993629;28;20038;-77
2022/10/12 06:56:43;;;;;;;13.60;5.50;;;7.00;99.90;;;;;;4992652;28;20046;-76
2022/10/12 06:59:12;;;;;;;13.82;5.80;;;7.10;99.90;;;;;;4995270;28;20053;-77
2022/10/12 07:01:38;;;;;;;13.23;6.20;;;7.30;99.90;;;;;;4995563;28;20049;-77
2022/10/12 07:04:04;;;;;;;12.10;6.28;;;7.30;99.90;;;;;;5011561;28;20030;-77
2022/10/12 07:06:30;;;;;;;12.77;6.18;;;7.30;99.90;;;;;;4995080;28;20093;-77
2022/10/12 07:08:55;;;;;;;11.45;6.32;;;7.30;99.90;;;;;;4995100;28;20038;-77
2022/10/12 07:11:21;;;;;;;14.90;6.63;;;7.30;99.90;;;;;;5011425;28;20389;-77
2022/10/12 07:13:47;;;;;;;12.88;6.75;;;7.40;99.90;;;;;;4978774;28;20046;-77
2022/10/12 07:16:13;;;;;;;16.40;6.75;;;7.40;99.90;;;;;;4994049;28;20042;-77
2022/10/12 07:18:39;;;;;;;12.32;6.78;;;7.40;99.90;;;;;;5011552;28;20046;-78
2022/10/12 07:21:05;;;;;;;13.02;7.00;;;7.50;99.90;;;;;;4994925;28;20586;-77
2022/10/12 07:23:32;;;;;;;15.73;6.45;;;7.50;99.90;;;;;;4994909;28;20042;-77
2022/10/12 07:25:59;;;;;;;13.50;6.32;;;7.60;99.90;;;;;;5011208;28;20049;-77
2022/10/12 07:28:25;;;;;;;15.57;6.90;;;7.50;99.90;;;;;;4978671;28;20046;-77
2022/10/12 07:30:51;;;;;;;14.38;7.45;;;7.60;99.90;;;;;;4994715;28;20042;-77
2022/10/12 07:33:16;;;;;;;14.82;7.30;;;7.60;99.90;;;;;;4994659;28;20436;-77
2022/10/12 07:35:42;;;;;;;13.82;7.22;;;7.60;99.90;;;;;;4994590;28;20042;-78
2022/10/12 07:38:07;;;;;;;17.10;8.00;;;7.60;99.90;;;;;;5010725;28;20034;-78
2022/10/12 07:40:33;;;;;;;14.80;7.28;;;7.60;99.90;;;;;;4994595;28;20125;-77
2022/10/12 07:42:59;;;;;;;14.52;7.80;;;7.60;99.90;;;;;;5010742;28;20042;-77
2022/10/12 07:45:27;;;;;;;13.43;7.47;;;7.70;99.90;;;;;;5009882;28;21286;-77
2022/10/12 07:47:56;;;;;;;16.30;7.53;;;7.70;99.90;;;;;;4994570;28;20068;-77
2022/10/12 07:50:22;;;;;;;18.92;7.82;;;7.70;99.90;;;;;;4978135;28;20045;-78
2022/10/12 07:52:47;;;;;;;18.02;8.00;;;7.90;99.90;;;;;;4976894;28;20432;-78
2022/10/12 07:55:13;;;;;;;15.00;7.90;;;8.10;99.90;;;;;;4994296;28;20042;-79
2022/10/12 07:57:39;;;;;;;12.00;7.47;;;8.10;99.90;;;;;;4993809;28;20062;-78
2022/10/12 08:00:05;;;;;;;12.40;7.50;;;8.10;99.90;;;;;;4994144;28;20056;-78
2022/10/12 08:02:31;;;;;;;13.18;7.68;;;8.10;99.90;;;;;;4994282;28;20077;-78
2022/10/12 08:04:56;;;;;;;15.85;7.65;;;8.10;99.90;;;;;;4994022;28;20074;-79
2022/10/12 08:07:22;;;;;;;15.98;7.88;;;8.10;99.90;;;;;;4990326;28;20042;-78
2022/10/12 08:09:48;;;;;;;14.50;7.93;;;8.20;99.90;;;;;;5010277;28;20038;-79
2022/10/12 08:12:14;;;;;;;12.75;7.13;;;8.30;99.90;;;;;;5010158;28;20065;-79
2022/10/12 08:14:39;;;;;;;15.15;7.35;;;8.30;99.90;;;;;;4993886;28;20444;-79
2022/10/12 08:17:05;;;;;;;12.63;6.60;;;8.40;99.90;;;;;;5026470;28;20416;-79
2022/10/12 08:19:31;;;;;;;14.75;6.97;;;8.60;99.90;;;;;;5010174;28;20061;-79
2022/10/12 08:21:57;;;;;;;17.88;6.25;;;8.70;99.90;;;;;;4977803;28;20041;-79
2022/10/12 08:24:22;;;;;;;14.40;6.18;;;8.80;99.90;;;;;;5010021;28;20038;-79
2022/10/12 08:26:48;;;;;;;15.57;6.20;;;8.90;99.90;;;;;;4993539;28;20085;-79
2022/10/12 08:29:13;;;;;;;10.25;5.03;;;9.00;99.90;;;;;;4993587;28;20095;-79
2022/10/12 08:31:39;;;;;;;15.60;5.68;;;9.10;99.90;;;;;;4993598;28;20046;-78
2022/10/12 08:34:05;;;;;;;13.43;5.05;;;9.30;99.90;;;;;;5026345;28;20488;-79
2022/10/12 08:36:31;;;;;;;10.93;4.22;;;9.40;99.90;;;;;;4992506;28;20038;-79
2022/10/12 08:38:56;;;;;;;13.32;4.88;;;9.40;99.90;;;;;;4976414;28;20197;-79
2022/10/12 08:41:28;;;;;;;15.20;5.07;;;9.40;99.90;;;;;;4990405;28;20045;-80
2022/10/12 08:44:08;;;;;;;10.40;4.72;;;9.40;99.90;;;;;;5008170;28;20042;-77
2022/10/12 08:46:34;;;;;;;12.27;4.60;;;9.50;99.90;;;;;;5009010;28;20061;-79
2022/10/12 08:49:17;;;;;;;13.38;4.30;;;9.50;99.90;;;;;;5008469;28;20046;-79
2022/10/12 08:51:51;;;;;;;11.25;3.85;;;9.60;99.90;;;;;;5007159;28;20480;-79
2022/10/12 08:54:21;;;;;;;13.73;4.60;;;9.70;99.90;;;;;;4993215;28;20049;-78
2022/10/12 08:56:47;;;;;;;10.38;3.70;;;9.60;99.90;;;;;;4976103;28;20830;-78
2022/10/12 08:59:16;;;;;;;10.27;4.15;;;9.70;99.90;;;;;;4992032;28;20042;-78
2022/10/12 09:01:56;;;;;;;15.50;4.45;;;9.60;99.90;;;;;;4993241;28;20141;-78
2022/10/12 09:04:55;;;;;;;12.27;3.90;;;9.70;99.90;;;;;;4992588;28;20038;-79
2022/10/12 09:07:33;;;;;;;13.30;3.75;;;9.80;99.90;;;;;;4993026;28;20038;-79
2022/10/12 09:10:23;;;;;;;9.82;3.90;;;9.80;99.90;;;;;;4992033;28;20044;-79
2022/10/12 09:12:49;;;;;;;16.30;4.50;;;9.90;99.90;;;;;;4976259;28;20129;-79
2022/10/12 09:15:20;;;;;;;12.52;4.20;;;9.90;99.90;;;;;;4976934;28;20146;-79
2022/10/12 09:17:51;;;;;;;14.57;4.10;;;9.90;99.90;;;;;;4976590;28;20039;-79
2022/10/12 09:20:20;;;;;;;12.90;4.50;;;9.90;99.90;;;;;;4976669;28;20034;-79
2022/10/12 09:22:54;;;;;;;12.07;4.18;;;9.90;99.90;;;;;;4992735;28;20046;-79
2022/10/12 09:25:25;;;;;;;13.63;3.95;;;9.90;99.90;;;;;;4976478;28;20043;-79
2022/10/12 09:27:50;;;;;;;13.50;3.97;;;10.00;99.90;;;;;;4974865;28;20149;-79
2022/10/12 09:30:18;;;;;;;13.80;4.18;;;10.20;99.90;;;;;;4973395;28;20564;-79
2022/10/12 09:33:06;;;;;;;12.10;4.22;;;10.40;99.90;;;;;;5013103;28;20042;-80
2022/10/12 09:35:32;;;;;;;11.35;4.45;;;10.60;99.90;;;;;;5025610;28;20467;-80
2022/10/12 09:37:59;;;;;;;10.48;4.15;;;10.80;99.90;;;;;;5007912;28;20043;-79
2022/10/12 09:40:29;;;;;;;13.57;4.28;;;10.90;99.90;;;;;;4985873;28;20047;-79
2022/10/12 09:42:59;;;;;;;10.95;3.88;;;11.10;99.90;;;;;;4973362;28;20042;-79
2022/10/12 09:45:25;;;;;;;10.95;3.80;;;11.30;99.90;;;;;;5020019;28;20042;-80
2022/10/12 09:48:23;;;;;;;12.23;4.05;;;11.30;99.90;;;;;;4992423;28;20077;-80
2022/10/12 09:51:00;;;;;;;12.75;4.00;;;11.40;99.90;;;;;;4956420;28;20142;-80
2022/10/12 09:53:46;;;;;;;12.50;3.58;;;11.50;99.90;;;;;;5005790;28;20046;-80
2022/10/12 09:56:26;;;;;;;12.82;3.42;;;11.60;99.90;;;;;;4984521;28;20038;-74
2022/10/12 09:58:59;;;;;;;13.90;3.90;;;11.80;99.90;;;;;;5004307;28;20050;-73
2022/10/12 10:01:26;;;;;;;11.55;3.88;;;11.80;99.90;;;;;;4974585;28;20412;-73
2022/10/12 10:04:09;;;;;;;12.70;4.35;;;11.80;99.90;;;;;;4990084;28;20444;-73
2022/10/12 10:06:40;;;;;;;13.65;3.47;;;11.90;99.90;;;;;;4991595;28;20042;-73
2022/10/12 10:09:28;;;;;;;10.63;3.15;;;12.10;99.90;;;;;;4992241;28;20535;-73
2022/10/12 10:11:54;;;;;;;13.20;3.05;;;12.10;99.90;;;;;;4991205;28;20566;-73
2022/10/12 10:14:20;;;;;;;12.70;3.78;;;12.10;99.90;;;;;;4989032;28;20035;-73
2022/10/12 10:16:53;;;;;;;8.30;2.80;;;12.10;99.90;;;;;;4994441;28;20101;-73
2022/10/12 10:19:23;;;;;;;9.40;3.03;;;12.20;99.90;;;;;;4996099;28;20046;-74
2022/10/12 10:21:51;;;;;;;13.23;3.25;;;12.30;99.90;;;;;;4994000;28;20435;-73
2022/10/12 10:24:25;;;;;;;10.52;2.67;;;12.30;99.90;;;;;;5003603;28;20034;-73
2022/10/12 10:26:58;;;;;;;11.48;2.65;;;12.40;99.90;;;;;;5013581;28;20033;-74
2022/10/12 10:29:30;;;;;;;11.00;2.95;;;12.40;99.90;;;;;;5014049;28;20046;-73
2022/10/12 10:32:27;;;;;;;11.18;3.05;;;12.50;99.90;;;;;;4994947;28;20445;-73
2022/10/12 10:35:11;;;;;;;9.20;2.38;;;12.60;99.90;;;;;;4996075;28;20041;-73
2022/10/12 10:37:56;;;;;;;11.90;2.80;;;12.60;99.90;;;;;;5011590;28;20049;-73
2022/10/12 10:40:41;;;;;;;13.05;2.95;;;12.70;99.90;;;;;;4994036;28;20033;-73
2022/10/12 10:43:28;;;;;;;9.75;3.40;;;12.70;99.90;;;;;;4996930;28;20419;-72
2022/10/12 10:46:15;;;;;;;9.40;2.65;;;12.70;99.90;;;;;;4995217;28;20092;-79
2022/10/12 10:48:57;;;;;;;8.50;2.47;;;12.70;99.90;;;;;;5012026;28;20454;-79
2022/10/12 10:51:49;;;;;;;11.00;3.50;;;12.80;99.90;;;;;;4978411;28;20034;-78
2022/10/12 10:54:37;;;;;;;13.13;3.03;;;13.00;99.90;;;;;;4993597;28;20082;-79
2022/10/12 10:57:18;;;;;;;8.00;2.40;;;13.00;99.90;;;;;;5010626;28;20050;-74
2022/10/12 10:59:54;;;;;;;9.52;2.65;;;13.00;99.90;;;;;;5011658;28;20622;-79
2022/10/12 11:02:52;;;;;;;11.68;2.55;;;12.90;99.90;;;;;;4995333;28;20126;-79
2022/10/12 11:05:24;;;;;;;8.75;2.80;;;12.90;99.90;;;;;;4979233;28;20392;-79
2022/10/12 11:07:51;;;;;;;10.65;3.05;;;13.10;99.90;;;;;;4979031;28;20049;-79
2022/10/12 11:10:59;;;;;;;7.93;2.72;;;13.00;99.90;;;;;;4978824;28;20046;-79
2022/10/12 11:13:52;;;;;;;12.65;2.80;;;13.00;99.90;;;;;;4942502;28;20054;-79
2022/10/12 11:16:49;;;;;;;12.43;3.10;;;12.90;99.90;;;;;;4974671;28;20615;-79
2022/10/12 11:19:57;;;;;;;8.07;2.13;;;13.00;99.90;;;;;;4990521;28;20061;-79
2022/10/12 11:22:49;;;;;;;11.98;2.58;;;13.10;99.90;;;;;;5027121;28;20034;-79
2022/10/12 11:25:27;;;;;;;9.02;1.95;;;13.00;99.90;;;;;;4994603;28;20054;-78
2022/10/12 11:27:53;;;;;;;7.90;1.95;;;13.30;99.90;;;;;;4994602;28;20042;-80
2022/10/12 11:30:22;;;;;;;9.48;2.72;;;13.40;99.90;;;;;;4993772;28;20116;-80
2022/10/12 11:33:14;;;;;;;8.35;2.25;;;13.40;99.90;;;;;;4976750;28;20048;-80
2022/10/12 11:35:43;;;;;;;7.55;2.25;;;13.50;99.90;;;;;;4972174;28;20129;-79
2022/10/12 11:38:14;;;;;;;10.10;2.35;;;13.60;99.90;;;;;;4997842;28;20133;-79
2022/10/12 11:40:49;;;;;;;10.45;2.90;;;13.70;99.90;;;;;;4999153;28;20050;-79
2022/10/12 11:43:30;;;;;;;9.45;2.83;;;13.80;99.90;;;;;;4994883;28;20401;-80
2022/10/12 11:46:04;;;;;;;12.10;2.97;;;13.90;99.90;;;;;;5008754;28;20519;-79
2022/10/12 11:48:40;;;;;;;5.95;2.05;;;14.10;99.90;;;;;;4975097;28;20519;-80
2022/10/12 11:51:06;;;;;;;11.27;2.53;;;14.10;99.90;;;;;;4975115;28;20047;-78
2022/10/12 11:53:56;;;;;;;10.02;2.25;;;14.10;99.90;;;;;;4990315;28;20046;-79
2022/10/12 11:56:30;;;;;;;5.22;1.70;;;14.10;99.90;;;;;;4977346;28;20127;-80
2022/10/12 11:59:13;;;;;;;10.77;2.25;;;14.10;99.90;;;;;;4993013;28;20456;-79
2022/10/12 12:01:47;;;;;;;12.43;2.00;;;14.10;99.90;;;;;;5013671;28;20040;-81
2022/10/12 12:04:23;;;;;;;8.93;1.70;;;14.20;99.90;;;;;;5003803;28;20400;-80
2022/10/12 12:07:10;;;;;;;8.05;1.90;;;14.40;99.90;;;;;;5013630;28;20049;-80
2022/10/12 12:09:42;;;;;;;10.38;2.17;;;14.40;99.90;;;;;;4981010;28;20065;-80
2022/10/12 12:12:15;;;;;;;8.00;2.03;;;14.20;99.90;;;;;;4977771;28;20489;-80
2022/10/12 12:14:51;;;;;;;8.07;2.22;;;14.10;99.90;;;;;;5010664;28;20065;-80
2022/10/12 12:17:17;;;;;;;11.23;2.72;;;14.00;99.90;;;;;;4997654;28;20100;-80
2022/10/12 12:19:44;;;;;;;9.57;2.03;;;14.00;99.90;;;;;;4990622;28;20504;-80
2022/10/12 12:22:12;;;;;;;9.48;2.85;;;14.10;99.90;;;;;;4977468;28;20048;-80
2022/10/12 12:24:39;;;;;;;13.85;2.97;;;14.20;99.90;;;;;;4977546;28;20120;-80
2022/10/12 12:27:37;;;;;;;10.32;3.15;;;14.20;99.90;;;;;;4993678;28;20046;-80
2022/10/12 12:30:26;;;;;;;9.57;2.40;;;14.20;99.90;;;;;;4993545;28;20495;-80
2022/10/12 12:32:58;;;;;;;11.57;2.55;;;14.20;99.90;;;;;;4977678;28;20049;-79
2022/10/12 12:35:28;;;;;;;14.13;2.45;;;14.30;99.90;;;;;;4977090;28;20041;-80
2022/10/12 12:38:23;;;;;;;5.22;2.03;;;14.30;99.90;;;;;;5021247;28;20488;-80
2022/10/12 12:40:58;;;;;;;7.68;2.13;;;14.30;99.90;;;;;;4947496;28;20524;-80
2022/10/12 12:43:27;;;;;;;8.82;2.47;;;14.20;99.90;;;;;;4984417;28;20034;-79
2022/10/12 12:46:03;;;;;;;9.00;2.58;;;14.30;99.90;;;;;;5020353;28;20030;-81
2022/10/12 12:48:38;;;;;;;7.93;1.92;;;14.30;99.90;;;;;;4976367;28;20394;-81
2022/10/12 12:51:09;;;;;;;8.38;2.05;;;14.20;99.90;;;;;;5008014;28;20050;-80
2022/10/12 12:53:49;;;;;;;10.57;2.17;;;14.20;99.90;;;;;;4971985;28;20042;-80
2022/10/12 12:56:32;;;;;;;7.45;2.17;;;14.20;99.90;;;;;;4987176;28;20465;-81
2022/10/12 12:58:59;;;;;;;10.20;2.28;;;14.20;99.90;;;;;;4993722;28;20050;-81
2022/10/12 13:02:03;;;;;;;10.68;3.20;;;14.10;99.90;;;;;;4988541;28;20451;-81
2022/10/12 13:04:47;;;;;;;8.65;2.22;;;14.10;99.90;;;;;;5008382;28;20070;-81
2022/10/12 13:07:40;;;;;;;9.55;2.30;;;14.10;99.90;;;;;;5006867;28;20046;-81
2022/10/12 13:10:39;;;;;;;9.50;2.10;;;14.00;99.90;;;;;;4986532;28;20038;-82
2022/10/12 13:13:27;;;;;;;9.77;2.28;;;14.10;99.90;;;;;;4973786;28;20055;-80